createdAt,value
2022-09-15T00:00:17.872Z,99754.56
2022-09-15T00:03:06.409Z,99757.34
2022-09-15T00:05:54.687Z,99753.56
2022-09-15T00:08:43.200Z,99751.13
2022-09-15T00:11:33.048Z,99750.41
2022-09-15T00:14:20.410Z,99750.28
2022-09-15T00:17:07.885Z,99747.03
2022-09-15T00:19:58.450Z,99745.81
2022-09-15T00:22:46.098Z,99758.56
2022-09-15T00:25:33.372Z,99745.94
2022-09-15T00:28:22.313Z,99748.91
2022-09-15T00:31:11.810Z,99748.47
2022-09-15T00:34:02.661Z,99758.56
2022-09-15T00:36:51.548Z,99756.28
2022-09-15T00:39:38.932Z,99767.06
2022-09-15T00:42:26.704Z,99759.91
2022-09-15T00:45:18.421Z,99761.13
2022-09-15T00:48:07.492Z,99754.63
2022-09-15T00:50:58.599Z,99755.22
2022-09-15T00:53:49.402Z,99748.59
2022-09-15T00:56:39.892Z,99748.16
2022-09-15T00:59:30.954Z,99750.34
2022-09-15T01:02:22.381Z,99750.34
2022-09-15T01:05:12.166Z,99745.81
2022-09-15T01:08:03.470Z,99753.31
2022-09-15T01:10:52.243Z,99754.16
2022-09-15T01:13:39.682Z,99751.13
2022-09-15T01:16:33.785Z,99743.28
2022-09-15T01:20:05.464Z,99748.69
2022-09-15T01:23:10.108Z,99754.41
2022-09-15T01:26:38.770Z,99744.56
2022-09-15T01:29:50.836Z,99749.13
2022-09-15T01:33:13.392Z,99748.22
2022-09-15T01:36:06.345Z,99754.53
2022-09-15T01:39:00.959Z,99757.25
2022-09-15T01:41:52.192Z,99751.59
2022-09-15T01:44:45.473Z,99757.19
2022-09-15T01:47:34.903Z,99760.84
2022-09-15T01:50:25.379Z,99758.09
2022-09-15T01:53:16.451Z,99751.13
2022-09-15T01:56:07.130Z,99747.94
2022-09-15T01:58:54.468Z,99752.78
2022-09-15T02:01:51.653Z,99746.25
2022-09-15T02:04:47.209Z,99751.25
2022-09-15T02:07:44.879Z,99753.16
2022-09-15T02:10:40.241Z,99747.22
2022-09-15T02:13:37.371Z,99750.22
2022-09-15T02:16:28.962Z,99749.81
2022-09-15T02:19:21.673Z,99758.88
2022-09-15T02:22:17.662Z,99760.53
2022-09-15T02:25:09.529Z,99751.13
2022-09-15T02:28:01.067Z,99755.97
2022-09-15T02:30:50.066Z,99751.59
2022-09-15T02:33:44.347Z,99754.16
2022-09-15T02:36:32.753Z,99757.78
2022-09-15T02:39:24.164Z,99752.19
2022-09-15T02:42:11.786Z,99745.47
2022-09-15T02:45:00.039Z,99736.00
2022-09-15T02:47:47.138Z,99737.34
2022-09-15T02:50:34.592Z,99738.13
2022-09-15T02:53:23.840Z,99743.66
2022-09-15T02:56:11.067Z,99739.00
2022-09-15T02:58:58.334Z,99743.16
2022-09-15T03:01:45.786Z,99740.56
2022-09-15T03:04:33.259Z,99732.13
2022-09-15T03:07:21.857Z,99736.38
2022-09-15T03:10:12.860Z,99736.44
2022-09-15T03:13:00.406Z,99736.03
2022-09-15T03:15:47.639Z,99740.69
2022-09-15T03:18:34.970Z,99743.50
2022-09-15T03:21:22.546Z,99762.88
2022-09-15T03:24:09.889Z,99751.78
2022-09-15T03:26:58.446Z,99752.19
2022-09-15T03:29:46.145Z,99749.06
2022-09-15T03:32:34.097Z,99754.28
2022-09-15T03:35:20.726Z,99755.31
2022-09-15T03:38:08.245Z,99757.75
2022-09-15T03:41:00.222Z,99757.53
2022-09-15T03:43:48.889Z,99751.69
2022-09-15T03:46:36.361Z,99752.53
2022-09-15T03:49:24.501Z,99763.84
2022-09-15T03:52:12.439Z,99761.72
2022-09-15T03:54:59.733Z,99760.88
2022-09-15T03:57:46.948Z,99761.66
2022-09-15T04:00:35.945Z,99760.31
2022-09-15T04:03:23.569Z,99764.25
2022-09-15T04:06:10.580Z,99758.34
2022-09-15T04:09:00.188Z,99751.38
2022-09-15T04:11:47.612Z,99758.06
2022-09-15T04:14:35.436Z,99752.59
2022-09-15T04:17:24.594Z,99752.13
2022-09-15T04:20:11.661Z,99752.94
2022-09-15T04:22:59.001Z,99749.50
2022-09-15T04:25:55.822Z,99749.94
2022-09-15T04:28:43.200Z,99751.47
2022-09-15T04:31:30.070Z,99757.16
2022-09-15T04:34:19.161Z,99750.03
2022-09-15T04:37:07.626Z,99755.88
2022-09-15T04:39:55.233Z,99761.78
2022-09-15T04:42:43.308Z,99755.03
2022-09-15T04:45:30.893Z,99763.88
2022-09-15T04:48:17.980Z,99752.84
2022-09-15T04:51:08.893Z,99753.25
2022-09-15T04:53:55.715Z,99755.72
2022-09-15T04:56:43.843Z,99753.84
2022-09-15T04:59:31.156Z,99760.38
2022-09-15T05:02:18.387Z,99757.22
2022-09-15T05:05:06.638Z,99752.03
2022-09-15T05:07:55.600Z,99757.00
2022-09-15T05:10:43.120Z,99764.63
2022-09-15T05:13:30.804Z,99765.84
2022-09-15T05:16:20.291Z,99763.78
2022-09-15T05:19:07.551Z,99762.41
2022-09-15T05:21:54.881Z,99762.47
2022-09-15T05:24:43.529Z,99755.22
2022-09-15T05:27:32.711Z,99758.19
2022-09-15T05:30:39.679Z,99765.25
2022-09-15T05:33:27.478Z,99770.44
2022-09-15T05:36:16.023Z,99765.56
2022-09-15T05:39:03.390Z,99766.75
2022-09-15T05:41:52.103Z,99764.56
2022-09-15T05:44:39.546Z,99761.44
2022-09-15T05:47:27.199Z,99764.41
2022-09-15T05:50:14.773Z,99768.59
2022-09-15T05:53:01.630Z,99768.75
2022-09-15T05:55:49.641Z,99759.63
2022-09-15T05:58:40.247Z,99758.66
2022-09-15T06:01:30.096Z,99765.13
2022-09-15T06:04:18.117Z,99764.44
2022-09-15T06:07:05.916Z,99764.03
2022-09-15T06:09:53.454Z,99766.13
2022-09-15T06:12:40.873Z,99771.53
2022-09-15T06:15:29.789Z,99772.38
2022-09-15T06:18:17.441Z,99768.78
2022-09-15T06:21:06.740Z,99771.53
2022-09-15T06:23:55.254Z,99782.75
2022-09-15T06:26:42.257Z,99785.22
2022-09-15T06:29:30.119Z,99790.34
2022-09-15T06:32:19.033Z,99793.06
2022-09-15T06:35:07.200Z,99784.22
2022-09-15T06:37:54.624Z,99784.59
2022-09-15T06:40:41.754Z,99782.47
2022-09-15T06:43:29.092Z,99784.06
2022-09-15T06:46:18.275Z,99796.69
2022-09-15T06:49:06.426Z,99794.78
2022-09-15T06:51:54.189Z,99799.47
2022-09-15T06:54:41.248Z,99808.41
2022-09-15T06:57:28.570Z,99802.78
2022-09-15T07:00:16.522Z,99802.31
2022-09-15T07:03:04.204Z,99802.91
2022-09-15T07:05:52.807Z,99804.63
2022-09-15T07:08:40.998Z,99803.94
2022-09-15T07:11:28.276Z,99813.84
2022-09-15T07:14:15.541Z,99814.56
2022-09-15T07:17:02.928Z,99814.78
2022-09-15T07:19:50.230Z,99810.19
2022-09-15T07:22:38.901Z,99806.19
2022-09-15T07:25:26.089Z,99813.69
2022-09-15T07:28:13.483Z,99815.03
2022-09-15T07:31:01.109Z,99808.72
2022-09-15T07:33:49.356Z,99806.19
2022-09-15T07:36:37.123Z,99816.00
2022-09-15T07:39:26.040Z,99817.31
2022-09-15T07:42:13.637Z,99821.59
2022-09-15T07:45:03.138Z,99810.75
2022-09-15T07:47:50.424Z,99816.59
2022-09-15T07:50:37.583Z,99820.06
2022-09-15T07:53:25.295Z,99816.38
2022-09-15T07:56:14.224Z,99824.16
2022-09-15T07:59:01.752Z,99822.34
2022-09-15T08:01:49.322Z,99829.97
2022-09-15T08:04:36.137Z,99833.91
2022-09-15T08:07:23.731Z,99835.94
2022-09-15T08:10:11.213Z,99837.97
2022-09-15T08:13:02.299Z,99837.25
2022-09-15T08:15:50.053Z,99838.56
2022-09-15T08:18:38.240Z,99846.19
2022-09-15T08:21:25.776Z,99846.31
2022-09-15T08:24:13.718Z,99850.47
2022-09-15T08:27:01.382Z,99851.16
2022-09-15T08:29:51.188Z,99855.13
2022-09-15T08:32:38.770Z,99851.38
2022-09-15T08:35:26.360Z,99856.50
2022-09-15T08:38:13.550Z,99867.53
2022-09-15T08:41:04.476Z,99862.88
2022-09-15T08:43:57.417Z,99860.66
2022-09-15T08:46:53.514Z,99858.63
2022-09-15T08:49:51.934Z,99853.41
2022-09-15T08:52:44.396Z,99856.38
2022-09-15T08:55:39.956Z,99869.38
2022-09-15T08:58:31.020Z,99858.34
2022-09-15T09:01:34.286Z,99868.56
2022-09-15T09:04:39.292Z,99868.56
2022-09-15T09:07:52.375Z,99861.59
2022-09-15T09:10:49.306Z,99871.06
2022-09-15T09:13:41.272Z,99865.25
2022-09-15T09:16:59.140Z,99862.81
2022-09-15T09:20:02.295Z,99865.16
2022-09-15T09:22:53.717Z,99869.63
2022-09-15T09:25:41.552Z,99861.56
2022-09-15T09:28:36.999Z,99864.50
2022-09-15T09:31:26.670Z,99853.22
2022-09-15T09:34:21.756Z,99851.88
2022-09-15T09:37:15.709Z,99855.16
2022-09-15T09:40:03.801Z,99844.09
2022-09-15T09:42:51.263Z,99852.38
2022-09-15T09:45:39.177Z,99853.91
2022-09-15T09:48:28.664Z,99853.94
2022-09-15T09:51:35.799Z,99844.09
2022-09-15T09:54:28.843Z,99848.69
2022-09-15T09:57:27.545Z,99854.53
2022-09-15T10:00:33.373Z,99843.94
2022-09-15T10:03:22.471Z,99838.84
2022-09-15T10:06:15.091Z,99840.88
2022-09-15T10:09:09.117Z,99841.66
2022-09-15T10:12:01.533Z,99833.66
2022-09-15T10:14:53.337Z,99834.31
2022-09-15T10:17:43.637Z,99834.50
2022-09-15T10:20:33.851Z,99839.03
2022-09-15T10:23:26.681Z,99836.66
2022-09-15T10:26:32.122Z,99831.13
2022-09-15T10:29:21.033Z,99839.34
2022-09-15T10:32:25.177Z,99837.41
2022-09-15T10:35:15.586Z,99837.19
2022-09-15T10:38:09.654Z,99830.13
2022-09-15T10:41:04.505Z,99822.44
2022-09-15T10:44:11.069Z,99817.44
2022-09-15T10:47:14.711Z,99821.75
2022-09-15T10:50:12.416Z,99821.84
2022-09-15T10:53:15.377Z,99825.34
2022-09-15T10:56:19.261Z,99821.53
2022-09-15T10:59:28.056Z,99815.75
2022-09-15T11:02:45.141Z,99826.25
2022-09-15T11:05:54.877Z,99825.19
2022-09-15T11:09:00.480Z,99836.22
2022-09-15T11:12:01.848Z,99826.28
2022-09-15T11:15:06.953Z,99823.84
2022-09-15T11:18:09.589Z,99819.63
2022-09-15T11:21:18.708Z,99825.28
2022-09-15T11:24:25.383Z,99827.44
2022-09-15T11:27:20.078Z,99823.34
2022-09-15T11:30:15.820Z,99827.53
2022-09-15T11:33:10.742Z,99820.47
2022-09-15T11:36:04.231Z,99827.81
2022-09-15T11:38:55.615Z,99836.50
2022-09-15T11:41:49.813Z,99824.72
2022-09-15T11:44:40.303Z,99829.81
2022-09-15T11:47:31.916Z,99827.50
2022-09-15T11:50:23.812Z,99837.28
2022-09-15T11:53:18.945Z,99822.75
2022-09-15T11:56:21.749Z,99833.72
2022-09-15T11:59:22.339Z,99832.00
2022-09-15T12:02:20.731Z,99836.19
2022-09-15T12:05:13.193Z,99840.28
2022-09-15T12:08:08.186Z,99833.06
2022-09-15T12:10:58.066Z,99838.69
2022-09-15T12:13:46.118Z,99840.13
2022-09-15T12:16:35.789Z,99843.75
2022-09-15T12:19:43.510Z,99834.28
2022-09-15T12:22:36.909Z,99830.59
2022-09-15T12:25:30.873Z,99831.63
2022-09-15T12:28:38.771Z,99825.59
2022-09-15T12:31:38.228Z,99831.66
2022-09-15T12:34:37.274Z,99830.34
2022-09-15T12:37:25.843Z,99835.81
2022-09-15T12:40:35.046Z,99836.16
2022-09-15T12:43:25.066Z,99838.28
2022-09-15T12:46:18.409Z,99837.56
2022-09-15T12:49:05.863Z,99832.78
2022-09-15T12:51:54.249Z,99834.75
2022-09-15T12:54:43.868Z,99835.56
2022-09-15T12:57:36.183Z,99828.38
2022-09-15T13:00:36.283Z,99825.69
2022-09-15T13:03:54.113Z,99823.94
2022-09-15T13:06:41.665Z,99822.59
2022-09-15T13:09:29.620Z,99821.81
2022-09-15T13:12:21.030Z,99817.69
2022-09-15T13:15:16.313Z,99826.56
2022-09-15T13:18:07.091Z,99823.69
2022-09-15T13:21:01.191Z,99821.53
2022-09-15T13:23:53.023Z,99828.69
2022-09-15T13:26:41.624Z,99825.94
2022-09-15T13:29:32.950Z,99815.53
2022-09-15T13:32:34.566Z,99820.38
2022-09-15T13:35:38.932Z,99820.22
2022-09-15T13:38:52.300Z,99836.63
2022-09-15T13:41:57.738Z,99839.91
2022-09-15T13:45:21.022Z,99846.56
2022-09-15T13:48:36.442Z,99850.56
2022-09-15T13:51:26.966Z,99850.88
2022-09-15T13:54:19.021Z,99841.44
2022-09-15T13:57:06.559Z,99843.00
2022-09-15T13:59:54.560Z,99843.66
2022-09-15T14:02:45.798Z,99836.25
2022-09-15T14:05:36.436Z,99837.38
2022-09-15T14:08:26.831Z,99842.13
2022-09-15T14:11:16.928Z,99843.59
2022-09-15T14:14:08.284Z,99845.13
2022-09-15T14:16:57.173Z,99851.78
2022-09-15T14:19:45.249Z,99849.59
2022-09-15T14:22:35.734Z,99840.81
2022-09-15T14:25:23.598Z,99839.56
2022-09-15T14:28:20.431Z,99833.16
2022-09-15T14:31:08.331Z,99846.94
2022-09-15T14:33:55.956Z,99836.94
2022-09-15T14:36:43.446Z,99834.47
2022-09-15T14:39:33.474Z,99833.47
2022-09-15T14:42:23.355Z,99832.75
2022-09-15T14:48:28.248Z,99843.38
2022-09-15T14:51:22.689Z,99837.16
2022-09-15T14:54:17.835Z,99838.31
2022-09-15T14:57:10.471Z,99843.69
2022-09-15T15:00:01.410Z,99850.41
2022-09-15T15:03:01.569Z,99848.22
2022-09-15T15:06:02.298Z,99855.53
2022-09-15T15:08:56.347Z,99848.38
2022-09-15T15:11:43.896Z,99850.88
2022-09-15T15:14:32.743Z,99861.88
2022-09-15T15:17:32.778Z,99853.06
2022-09-15T15:20:23.349Z,99850.13
2022-09-15T15:23:15.626Z,99854.72
2022-09-15T15:26:25.755Z,99851.22
2022-09-15T15:29:43.051Z,99855.72
2022-09-15T15:32:31.121Z,99856.13
2022-09-15T15:35:19.810Z,99858.38
2022-09-15T15:38:14.203Z,99860.56
2022-09-15T15:41:03.163Z,99853.03
2022-09-15T15:44:09.070Z,99849.38
2022-09-15T15:47:01.679Z,99857.66
2022-09-15T15:50:11.888Z,99853.81
2022-09-15T15:52:57.693Z,99851.97
2022-09-15T15:55:46.754Z,99852.91
2022-09-15T15:58:34.688Z,99854.06
2022-09-15T16:01:23.862Z,99863.56
2022-09-15T16:04:13.422Z,99855.38
2022-09-15T16:07:01.555Z,99861.38
2022-09-15T16:09:50.449Z,99850.88
2022-09-15T16:12:37.499Z,99857.13
2022-09-15T16:15:25.023Z,99856.88
2022-09-15T16:18:13.321Z,99856.38
2022-09-15T16:21:02.589Z,99858.72
2022-09-15T16:23:50.235Z,99855.22
2022-09-15T16:26:38.344Z,99855.72
2022-09-15T16:29:29.171Z,99858.91
2022-09-15T16:32:20.220Z,99855.16
2022-09-15T16:35:21.145Z,99865.41
2022-09-15T16:38:10.351Z,99862.22
2022-09-15T16:40:57.319Z,99861.72
2022-09-15T16:43:45.974Z,99874.38
2022-09-15T16:46:33.789Z,99881.47
2022-09-15T16:49:21.058Z,99882.16
2022-09-15T16:52:11.265Z,99881.38
2022-09-15T16:55:00.455Z,99892.16
2022-09-15T16:57:48.038Z,99890.28
2022-09-15T17:00:38.297Z,99890.06
2022-09-15T17:03:27.346Z,99883.97
2022-09-15T17:06:16.345Z,99893.78
2022-09-15T17:09:03.524Z,99895.44
2022-09-15T17:11:52.682Z,99895.09
2022-09-15T17:14:40.182Z,99903.97
2022-09-15T17:17:27.588Z,99904.06
2022-09-15T17:20:15.526Z,99903.72
2022-09-15T17:23:03.795Z,99900.59
2022-09-15T17:25:53.294Z,99906.47
2022-09-15T17:28:42.359Z,99922.50
2022-09-15T17:31:29.866Z,99926.78
2022-09-15T17:34:17.352Z,99926.41
2022-09-15T17:37:05.209Z,99930.50
2022-09-15T17:39:58.691Z,99934.44
2022-09-15T17:42:47.335Z,99927.38
2022-09-15T17:45:38.130Z,99930.03
2022-09-15T17:48:26.092Z,99931.00
2022-09-15T17:51:16.593Z,99928.97
2022-09-15T17:54:04.331Z,99926.31
2022-09-15T17:56:51.785Z,99921.31
2022-09-15T17:59:38.942Z,99921.31
2022-09-15T18:02:27.762Z,99920.94
2022-09-15T18:05:25.423Z,99926.78
2022-09-15T18:08:12.401Z,99926.44
2022-09-15T18:11:00.944Z,99926.44
2022-09-15T18:13:48.600Z,99921.06
2022-09-15T18:16:36.098Z,99924.91
2022-09-15T18:19:24.927Z,99930.38
2022-09-15T18:22:14.354Z,99933.34
2022-09-15T18:25:02.109Z,99940.16
2022-09-15T18:27:50.040Z,99944.69
2022-09-15T18:30:40.648Z,99947.22
2022-09-15T18:33:28.553Z,99946.97
2022-09-15T18:36:17.258Z,99951.75
2022-09-15T18:39:06.445Z,99952.56
2022-09-15T18:41:55.068Z,99959.72
2022-09-15T18:44:41.987Z,99958.66
2022-09-15T18:47:29.541Z,99962.91
2022-09-15T18:50:18.377Z,99960.84
2022-09-15T18:53:07.705Z,99960.94
2022-09-15T18:55:55.080Z,99952.47
2022-09-15T18:58:42.634Z,99953.88
2022-09-15T19:01:30.048Z,99968.41
2022-09-15T19:04:17.970Z,99962.44
2022-09-15T19:07:05.512Z,99958.03
2022-09-15T19:09:56.487Z,99965.81
2022-09-15T19:12:44.940Z,99962.09
2022-09-15T19:15:33.948Z,99977.34
2022-09-15T19:18:22.202Z,99967.56
2022-09-15T19:21:11.499Z,99973.06
2022-09-15T19:23:59.501Z,99959.81
2022-09-15T19:26:48.399Z,99959.09
2022-09-15T19:29:36.299Z,99970.91
2022-09-15T19:32:24.232Z,99964.56
2022-09-15T19:35:11.378Z,99971.38
2022-09-15T19:37:59.192Z,99983.78
2022-09-15T19:40:46.701Z,99972.22
2022-09-15T19:43:36.236Z,99973.53
2022-09-15T19:46:25.529Z,99978.19
2022-09-15T19:49:12.982Z,99979.75
2022-09-15T19:52:00.350Z,99979.47
2022-09-15T19:54:48.347Z,99984.69
2022-09-15T19:57:35.527Z,99991.00
2022-09-15T20:00:24.767Z,99995.72
2022-09-15T20:03:12.093Z,99993.22
2022-09-15T20:05:59.300Z,99996.31
2022-09-15T20:08:47.635Z,99989.19
2022-09-15T20:11:35.094Z,99994.66
2022-09-15T20:14:22.739Z,99999.69
2022-09-15T20:17:11.462Z,99997.84
2022-09-15T20:19:59.058Z,100006.00
2022-09-15T20:22:46.891Z,100006.88
2022-09-15T20:25:34.099Z,100009.00
2022-09-15T20:28:21.383Z,100005.72
2022-09-15T20:31:12.206Z,100005.25
2022-09-15T20:34:02.215Z,100004.13
2022-09-15T20:36:49.627Z,100013.28
2022-09-15T20:39:37.098Z,100010.38
2022-09-15T20:42:24.508Z,100015.38
2022-09-15T20:45:12.417Z,100012.47
2022-09-15T20:48:00.555Z,100011.16
2022-09-15T20:50:49.632Z,100017.06
2022-09-15T20:53:36.826Z,100012.34
2022-09-15T20:56:26.299Z,100013.53
2022-09-15T20:59:15.326Z,100015.31
2022-09-15T21:02:04.411Z,100015.38
2022-09-15T21:04:51.448Z,100015.84
2022-09-15T21:07:41.150Z,100021.31
2022-09-15T21:10:30.541Z,100021.84
2022-09-15T21:13:19.295Z,100020.63
2022-09-15T21:16:08.349Z,100021.88
2022-09-15T21:18:57.848Z,100025.72
2022-09-15T21:21:45.105Z,100018.56
2022-09-15T21:24:33.718Z,100023.94
2022-09-15T21:27:30.655Z,100030.13
2022-09-15T21:30:18.674Z,100021.75
2022-09-15T21:33:06.551Z,100019.06
2022-09-15T21:35:54.127Z,100025.22
2022-09-15T21:38:44.125Z,100025.41
2022-09-15T21:41:33.116Z,100028.09
2022-09-15T21:44:20.551Z,100027.31
2022-09-15T21:47:08.259Z,100030.91
2022-09-15T21:49:55.782Z,100039.34
2022-09-15T21:52:43.264Z,100029.09
2022-09-15T21:55:31.272Z,100033.53
2022-09-15T21:58:21.901Z,100040.88
2022-09-15T22:01:12.689Z,100037.09
2022-09-15T22:04:01.266Z,100037.53
2022-09-15T22:06:50.173Z,100037.56
2022-09-15T22:09:38.858Z,100035.28
2022-09-15T22:12:26.018Z,100038.44
2022-09-15T22:15:15.088Z,100037.13
2022-09-15T22:18:03.041Z,100038.38
2022-09-15T22:20:52.469Z,100047.00
2022-09-15T22:23:40.979Z,100051.81
2022-09-15T22:26:30.901Z,100049.34
2022-09-15T22:29:18.829Z,100048.94
2022-09-15T22:32:07.284Z,100046.06
2022-09-15T22:34:54.873Z,100049.03
2022-09-15T22:37:42.074Z,100048.41
2022-09-15T22:40:29.659Z,100056.44
2022-09-15T22:43:17.068Z,100051.13
2022-09-15T22:46:04.042Z,100052.84
2022-09-15T22:48:53.442Z,100053.06
2022-09-15T22:51:40.903Z,100053.50
2022-09-15T22:54:28.646Z,100041.06
2022-09-15T22:57:15.964Z,100054.13
2022-09-15T23:00:03.756Z,100051.56
2022-09-15T23:02:52.060Z,100048.25
2022-09-15T23:05:40.550Z,100058.34
2022-09-15T23:08:28.292Z,100046.84
2022-09-15T23:11:15.598Z,100047.28
2022-09-15T23:14:03.360Z,100055.19
2022-09-15T23:16:51.128Z,100054.13
2022-09-15T23:19:38.208Z,100043.91
2022-09-15T23:22:27.307Z,100048.75
2022-09-15T23:25:15.053Z,100043.28
2022-09-15T23:28:03.077Z,100040.75
2022-09-15T23:30:53.254Z,100035.94
2022-09-15T23:33:41.127Z,100036.31
2022-09-15T23:36:28.626Z,100039.88
2022-09-15T23:39:17.186Z,100044.91
2022-09-15T23:42:04.908Z,100044.44
2022-09-15T23:44:52.363Z,100044.19
2022-09-15T23:47:39.765Z,100039.28
2022-09-15T23:50:29.107Z,100044.56
2022-09-15T23:53:18.285Z,100038.25
2022-09-15T23:56:07.455Z,100037.66
2022-09-15T23:58:54.564Z,100037.25
